sensor_id;sensor_type;location;lat;lon;timestamp;pressure;altitude;pressure_sealevel;temperature;humidity
43691;BME280;29293;52.190;21.226;2023-12-14T00:02:36;99286.84;;;1.50;100.00
43691;BME280;29293;52.190;21.226;2023-12-14T00:17:43;99296.61;;;1.45;100.00
43691;BME280;29293;52.190;21.226;2023-12-14T00:32:49;99305.19;;;1.37;100.00
43691;BME280;29293;52.190;21.226;2023-12-14T00:47:58;99320.27;;;1.30;100.00
43691;BME280;29293;52.190;21.226;2023-12-14T01:03:05;99337.17;;;1.23;100.00
43691;BME280;29293;52.190;21.226;2023-12-14T01:18:11;99350.15;;;1.17;100.00
43691;BME280;29293;52.190;21.226;2023-12-14T01:33:55;99352.52;;;1.15;100.00
43691;BME280;29293;52.190;21.226;2023-12-14T01:49:02;99342.19;;;1.09;100.00
43691;BME280;29293;52.190;21.226;2023-12-14T02:04:16;99342.10;;;1.04;100.00
43691;BME280;29293;52.190;21.226;2023-12-14T02:19:23;99326.77;;;1.00;100.00
43691;BME280;29293;52.190;21.226;2023-12-14T02:34:30;99327.73;;;0.98;100.00
43691;BME280;29293;52.190;21.226;2023-12-14T02:49:37;99322.39;;;0.96;100.00
43691;BME280;29293;52.190;21.226;2023-12-14T03:04:43;99330.81;;;0.97;100.00
43691;BME280;29293;52.190;21.226;2023-12-14T03:19:50;99343.99;;;0.99;100.00
43691;BME280;29293;52.190;21.226;2023-12-14T03:34:57;99351.09;;;0.99;100.00
43691;BME280;29293;52.190;21.226;2023-12-14T03:50:05;99366.13;;;0.97;100.00
43691;BME280;29293;52.190;21.226;2023-12-14T04:05:12;99378.70;;;0.97;100.00
43691;BME280;29293;52.190;21.226;2023-12-14T04:20:19;99390.63;;;1.00;100.00
43691;BME280;29293;52.190;21.226;2023-12-14T04:35:26;99393.63;;;1.00;100.00
43691;BME280;29293;52.190;21.226;2023-12-14T04:50:33;99411.16;;;0.95;100.00
43691;BME280;29293;52.190;21.226;2023-12-14T05:05:40;99430.73;;;0.93;100.00
43691;BME280;29293;52.190;21.226;2023-12-14T05:20:47;99452.02;;;0.90;100.00
43691;BME280;29293;52.190;21.226;2023-12-14T05:35:53;99470.95;;;0.94;100.00
43691;BME280;29293;52.190;21.226;2023-12-14T05:51:01;99491.63;;;0.98;100.00
43691;BME280;29293;52.190;21.226;2023-12-14T06:06:08;99516.70;;;0.96;100.00
43691;BME280;29293;52.190;21.226;2023-12-14T06:21:15;99544.63;;;0.90;100.00
43691;BME280;29293;52.190;21.226;2023-12-14T06:36:22;99558.66;;;0.89;100.00
43691;BME280;29293;52.190;21.226;2023-12-14T06:51:32;99576.70;;;0.88;100.00
43691;BME280;29293;52.190;21.226;2023-12-14T07:06:39;99587.36;;;0.90;100.00
43691;BME280;29293;52.190;21.226;2023-12-14T07:21:45;99593.73;;;0.91;100.00
43691;BME280;29293;52.190;21.226;2023-12-14T07:36:52;99604.48;;;0.80;100.00
43691;BME280;29293;52.190;21.226;2023-12-14T07:51:59;99616.66;;;0.75;100.00
43691;BME280;29293;52.190;21.226;2023-12-14T08:07:06;99626.70;;;0.81;100.00
43691;BME280;29293;52.190;21.226;2023-12-14T08:22:13;99655.10;;;0.84;100.00
43691;BME280;29293;52.190;21.226;2023-12-14T08:37:19;99675.77;;;0.94;100.00
43691;BME280;29293;52.190;21.226;2023-12-14T08:52:26;99701.92;;;1.13;100.00
43691;BME280;29293;52.190;21.226;2023-12-14T09:07:33;99723.77;;;1.19;100.00
43691;BME280;29293;52.190;21.226;2023-12-14T09:22:39;99737.02;;;1.11;100.00
43691;BME280;29293;52.190;21.226;2023-12-14T09:37:46;99746.20;;;1.17;100.00
43691;BME280;29293;52.190;21.226;2023-12-14T09:52:55;99750.27;;;1.23;100.00
43691;BME280;29293;52.190;21.226;2023-12-14T10:08:01;99754.76;;;1.27;100.00
43691;BME280;29293;52.190;21.226;2023-12-14T10:23:08;99758.02;;;1.24;100.00
43691;BME280;29293;52.190;21.226;2023-12-14T10:38:16;99765.20;;;1.32;100.00
43691;BME280;29293;52.190;21.226;2023-12-14T10:53:22;99777.88;;;1.40;100.00
43691;BME280;29293;52.190;21.226;2023-12-14T11:08:29;99799.35;;;1.43;100.00
43691;BME280;29293;52.190;21.226;2023-12-14T11:23:37;99819.64;;;1.37;100.00
43691;BME280;29293;52.190;21.226;2023-12-14T11:38:45;99834.20;;;1.34;100.00
43691;BME280;29293;52.190;21.226;2023-12-14T11:53:53;99847.91;;;1.26;100.00
43691;BME280;29293;52.190;21.226;2023-12-14T12:09:00;99860.40;;;1.17;100.00
43691;BME280;29293;52.190;21.226;2023-12-14T12:24:11;99871.45;;;1.12;100.00
43691;BME280;29293;52.190;21.226;2023-12-14T12:39:18;99889.74;;;1.20;100.00
43691;BME280;29293;52.190;21.226;2023-12-14T12:54:24;99899.10;;;1.15;100.00
43691;BME280;29293;52.190;21.226;2023-12-14T13:09:31;99904.32;;;1.09;100.00
43691;BME280;29293;52.190;21.226;2023-12-14T13:24:38;99914.52;;;1.05;100.00
43691;BME280;29293;52.190;21.226;2023-12-14T13:39:45;99938.86;;;0.95;100.00
43691;BME280;29293;52.190;21.226;2023-12-14T13:54:53;99953.84;;;0.90;100.00
43691;BME280;29293;52.190;21.226;2023-12-14T14:10:01;99975.52;;;0.86;100.00
43691;BME280;29293;52.190;21.226;2023-12-14T14:25:10;99989.62;;;0.86;100.00
43691;BME280;29293;52.190;21.226;2023-12-14T14:40:17;100010.64;;;0.88;100.00
43691;BME280;29293;52.190;21.226;2023-12-14T14:55:24;100024.41;;;0.88;100.00
43691;BME280;29293;52.190;21.226;2023-12-14T15:10:31;100038.23;;;0.91;100.00
43691;BME280;29293;52.190;21.226;2023-12-14T15:25:37;100052.34;;;0.93;100.00
43691;BME280;29293;52.190;21.226;2023-12-14T15:40:44;100080.71;;;0.94;100.00
43691;BME280;29293;52.190;21.226;2023-12-14T15:55:51;100100.64;;;0.97;100.00
43691;BME280;29293;52.190;21.226;2023-12-14T16:10:59;100123.35;;;0.98;100.00
43691;BME280;29293;52.190;21.226;2023-12-14T16:26:06;100144.06;;;1.02;100.00
43691;BME280;29293;52.190;21.226;2023-12-14T16:41:14;100169.79;;;1.05;100.00
43691;BME280;29293;52.190;21.226;2023-12-14T16:56:32;100182.61;;;1.03;100.00
43691;BME280;29293;52.190;21.226;2023-12-14T17:11:39;100193.87;;;1.03;100.00
43691;BME280;29293;52.190;21.226;2023-12-14T17:26:48;100205.46;;;1.01;100.00
43691;BME280;29293;52.190;21.226;2023-12-14T17:41:55;100219.59;;;0.98;100.00
43691;BME280;29293;52.190;21.226;2023-12-14T17:57:02;100236.38;;;0.97;100.00
43691;BME280;29293;52.190;21.226;2023-12-14T18:12:09;100267.73;;;0.97;100.00
43691;BME280;29293;52.190;21.226;2023-12-14T18:27:16;100280.70;;;0.95;100.00
43691;BME280;29293;52.190;21.226;2023-12-14T18:42:23;100293.36;;;0.90;100.00
43691;BME280;29293;52.190;21.226;2023-12-14T18:57:29;100329.44;;;0.85;100.00
43691;BME280;29293;52.190;21.226;2023-12-14T19:12:36;100350.25;;;0.78;100.00
43691;BME280;29293;52.190;21.226;2023-12-14T19:27:44;100371.58;;;0.69;100.00
43691;BME280;29293;52.190;21.226;2023-12-14T19:42:57;100394.38;;;0.61;100.00
43691;BME280;29293;52.190;21.226;2023-12-14T19:58:04;100416.25;;;0.59;100.00
43691;BME280;29293;52.190;21.226;2023-12-14T20:13:11;100435.28;;;0.57;100.00
43691;BME280;29293;52.190;21.226;2023-12-14T20:28:17;100450.63;;;0.47;100.00
43691;BME280;29293;52.190;21.226;2023-12-14T20:43:24;100462.92;;;0.37;100.00
43691;BME280;29293;52.190;21.226;2023-12-14T20:58:31;100488.55;;;0.30;100.00
43691;BME280;29293;52.190;21.226;2023-12-14T21:13:39;100509.11;;;0.10;100.00
43691;BME280;29293;52.190;21.226;2023-12-14T21:28:46;100529.06;;;-0.06;100.00
43691;BME280;29293;52.190;21.226;2023-12-14T21:43:53;100548.54;;;-0.23;100.00
43691;BME280;29293;52.190;21.226;2023-12-14T21:59:00;100577.68;;;-0.30;100.00
43691;BME280;29293;52.190;21.226;2023-12-14T22:14:07;100601.59;;;-0.37;100.00
43691;BME280;29293;52.190;21.226;2023-12-14T22:29:14;100626.38;;;-0.41;100.00
43691;BME280;29293;52.190;21.226;2023-12-14T22:44:21;100651.48;;;-0.44;100.00
43691;BME280;29293;52.190;21.226;2023-12-14T22:59:27;100670.45;;;-0.43;100.00
43691;BME280;29293;52.190;21.226;2023-12-14T23:14:35;100691.73;;;-0.54;100.00
43691;BME280;29293;52.190;21.226;2023-12-14T23:29:42;100706.38;;;-0.63;100.00
43691;BME280;29293;52.190;21.226;2023-12-14T23:44:48;100730.73;;;-0.69;100.00
43691;BME280;29293;52.190;21.226;2023-12-14T23:59:55;100756.08;;;-0.82;100.00
